createdAt,value
2023-03-19T00:02:16.178Z,23.60
2023-03-19T00:04:43.513Z,22.58
2023-03-19T00:07:10.136Z,21.83
2023-03-19T00:09:36.684Z,22.38
2023-03-19T00:12:03.393Z,21.63
2023-03-19T00:14:29.751Z,19.00
2023-03-19T00:16:56.305Z,20.27
2023-03-19T00:19:22.720Z,20.17
2023-03-19T00:21:49.085Z,19.63
2023-03-19T00:24:16.105Z,21.10
2023-03-19T00:26:42.437Z,20.40
2023-03-19T00:29:09.570Z,20.15
2023-03-19T00:31:36.101Z,22.55
2023-03-19T00:34:03.650Z,22.08
2023-03-19T00:36:30.411Z,24.48
2023-03-19T00:38:57.542Z,24.73
2023-03-19T00:41:24.454Z,26.00
2023-03-19T00:43:55.554Z,26.88
2023-03-19T00:46:22.903Z,25.15
2023-03-19T00:48:51.088Z,26.88
2023-03-19T00:51:17.529Z,27.38
2023-03-19T00:53:44.698Z,28.08
2023-03-19T00:56:13.067Z,25.25
2023-03-19T00:59:00.601Z,27.13
2023-03-19T01:01:27.221Z,27.25
2023-03-19T01:03:53.544Z,26.88
2023-03-19T01:06:19.899Z,25.52
2023-03-19T01:08:46.281Z,24.38
2023-03-19T01:11:15.206Z,26.13
2023-03-19T01:13:42.131Z,25.30
2023-03-19T01:16:09.451Z,25.00
2023-03-19T01:18:36.143Z,23.35
2023-03-19T01:21:03.644Z,26.55
2023-03-19T01:23:30.644Z,25.30
2023-03-19T01:25:57.429Z,25.00
2023-03-19T01:28:23.990Z,23.85
2023-03-19T01:30:50.852Z,24.23
2023-03-19T01:33:18.022Z,23.48
2023-03-19T01:35:47.635Z,24.88
2023-03-19T01:38:14.067Z,23.55
2023-03-19T01:40:47.858Z,24.35
2023-03-19T01:43:19.905Z,23.92
2023-03-19T01:45:48.093Z,23.75
2023-03-19T01:48:40.807Z,23.58
2023-03-19T01:51:10.507Z,22.95
2023-03-19T01:53:39.402Z,25.02
2023-03-19T01:56:14.085Z,23.05
2023-03-19T01:58:43.766Z,24.05
2023-03-19T02:01:10.562Z,24.48
2023-03-19T02:03:39.298Z,23.35
2023-03-19T02:06:06.505Z,23.48
2023-03-19T02:08:33.987Z,22.50
2023-03-19T02:11:02.019Z,23.65
2023-03-19T02:13:28.541Z,25.55
2023-03-19T02:15:55.381Z,25.38
2023-03-19T02:18:22.575Z,24.25
2023-03-19T02:21:05.639Z,24.98
2023-03-19T02:23:59.339Z,25.90
2023-03-19T02:26:29.339Z,25.27
2023-03-19T02:28:55.746Z,24.05
2023-03-19T02:31:23.236Z,24.48
2023-03-19T02:34:26.775Z,26.42
2023-03-19T02:37:05.320Z,27.08
2023-03-19T02:39:38.416Z,25.25
2023-03-19T02:42:06.000Z,28.00
2023-03-19T02:44:32.452Z,26.83
2023-03-19T02:46:59.501Z,28.52
2023-03-19T02:49:26.019Z,29.13
2023-03-19T02:51:52.390Z,27.83
2023-03-19T02:54:18.733Z,25.73
2023-03-19T02:56:46.086Z,26.10
2023-03-19T02:59:13.330Z,26.17
2023-03-19T03:01:39.844Z,27.65
2023-03-19T03:04:06.497Z,28.35
2023-03-19T03:06:32.875Z,26.42
2023-03-19T03:08:59.288Z,28.55
2023-03-19T03:11:25.665Z,26.77
2023-03-19T03:13:52.016Z,24.85
2023-03-19T03:16:18.460Z,26.63
2023-03-19T03:18:44.824Z,25.73
2023-03-19T03:21:11.704Z,25.80
2023-03-19T03:23:38.204Z,26.30
2023-03-19T03:26:04.703Z,24.80
2023-03-19T03:28:31.058Z,26.40
2023-03-19T03:31:02.165Z,24.98
2023-03-19T03:33:28.640Z,24.65
2023-03-19T03:35:55.914Z,25.20
2023-03-19T03:38:23.493Z,25.42
2023-03-19T03:40:52.381Z,25.52
2023-03-19T03:43:20.739Z,23.90
2023-03-19T03:45:48.731Z,24.67
2023-03-19T03:48:16.040Z,24.60
2023-03-19T03:50:42.897Z,22.85
2023-03-19T03:53:10.225Z,23.05
2023-03-19T03:55:36.874Z,24.08
2023-03-19T03:58:03.734Z,24.08
2023-03-19T04:00:30.209Z,25.38
2023-03-19T04:02:56.617Z,25.60
2023-03-19T04:05:23.070Z,24.08
2023-03-19T04:07:49.422Z,22.17
2023-03-19T04:10:15.771Z,22.80
2023-03-19T04:12:42.244Z,23.70
2023-03-19T04:15:11.073Z,27.33
2023-03-19T04:17:38.422Z,24.85
2023-03-19T04:20:05.597Z,23.55
2023-03-19T04:22:31.982Z,23.98
2023-03-19T04:24:58.508Z,25.05
2023-03-19T04:27:26.168Z,25.33
2023-03-19T04:29:52.544Z,31.63
2023-03-19T04:32:19.046Z,32.03
2023-03-19T04:34:45.440Z,33.55
2023-03-19T04:37:12.438Z,44.45
2023-03-19T04:39:41.065Z,49.13
2023-03-19T04:42:07.501Z,58.63
2023-03-19T04:44:33.912Z,62.35
2023-03-19T04:47:00.405Z,72.43
2023-03-19T04:49:27.301Z,94.38
2023-03-19T04:51:53.693Z,96.57
2023-03-19T04:54:20.726Z,118.90
2023-03-19T04:56:47.228Z,121.72
2023-03-19T04:59:13.599Z,112.55
2023-03-19T05:01:40.058Z,124.15
2023-03-19T05:04:07.161Z,153.75
2023-03-19T05:06:33.980Z,137.88
2023-03-19T05:09:00.831Z,164.95
2023-03-19T05:11:27.385Z,163.27
2023-03-19T05:13:53.763Z,149.88
2023-03-19T05:16:20.265Z,138.10
2023-03-19T05:18:46.824Z,153.30
2023-03-19T05:21:13.659Z,143.35
2023-03-19T05:23:40.212Z,120.18
2023-03-19T05:26:06.915Z,108.63
2023-03-19T05:28:33.401Z,102.20
2023-03-19T05:30:59.882Z,96.70
2023-03-19T05:33:26.834Z,90.28
2023-03-19T05:35:53.366Z,81.20
2023-03-19T05:38:19.924Z,73.05
2023-03-19T05:40:46.949Z,72.82
2023-03-19T05:43:14.055Z,67.07
2023-03-19T05:45:40.484Z,66.30
2023-03-19T05:48:06.933Z,63.22
2023-03-19T05:50:35.962Z,64.70
2023-03-19T05:53:03.319Z,63.17
2023-03-19T05:55:29.681Z,60.83
2023-03-19T05:57:56.618Z,66.68
2023-03-19T06:00:23.208Z,62.85
2023-03-19T06:02:49.632Z,62.65
2023-03-19T06:05:16.659Z,67.28
2023-03-19T06:07:43.326Z,68.95
2023-03-19T06:10:10.150Z,65.10
2023-03-19T06:12:37.024Z,66.07
2023-03-19T06:15:03.792Z,68.53
2023-03-19T06:17:30.644Z,66.07
2023-03-19T06:19:57.104Z,65.38
2023-03-19T06:22:23.542Z,65.38
2023-03-19T06:24:49.982Z,69.18
2023-03-19T06:27:16.346Z,68.30
2023-03-19T06:29:42.848Z,69.40
2023-03-19T06:32:09.733Z,72.28
2023-03-19T06:34:36.280Z,66.07
2023-03-19T06:37:02.676Z,67.68
2023-03-19T06:39:29.105Z,68.82
2023-03-19T06:41:55.782Z,68.78
2023-03-19T06:44:22.219Z,69.32
2023-03-19T06:46:48.629Z,73.57
2023-03-19T06:49:15.432Z,66.72
2023-03-19T06:51:41.886Z,67.90
2023-03-19T06:54:08.333Z,76.68
2023-03-19T06:56:34.698Z,76.80
2023-03-19T06:59:02.289Z,82.53
2023-03-19T07:01:28.896Z,76.50
2023-03-19T07:03:57.109Z,79.82
2023-03-19T07:06:23.682Z,75.30
2023-03-19T07:08:50.082Z,85.03
2023-03-19T07:11:16.604Z,79.82
2023-03-19T07:13:43.121Z,81.55
2023-03-19T07:16:09.733Z,78.53
2023-03-19T07:18:36.268Z,79.78
2023-03-19T07:21:02.756Z,80.18
2023-03-19T07:23:29.246Z,71.93
2023-03-19T07:25:55.739Z,78.25
2023-03-19T07:28:23.135Z,74.47
2023-03-19T07:30:52.302Z,70.15
2023-03-19T07:33:19.676Z,70.22
2023-03-19T07:35:46.467Z,66.10
2023-03-19T07:38:12.933Z,70.65
2023-03-19T07:40:43.405Z,70.53
2023-03-19T07:43:12.112Z,68.30
2023-03-19T07:45:38.529Z,68.78
2023-03-19T07:48:05.877Z,69.70
2023-03-19T07:50:32.992Z,68.43
2023-03-19T07:52:59.508Z,68.38
2023-03-19T07:55:25.967Z,64.93
2023-03-19T07:57:52.542Z,64.30
2023-03-19T08:00:19.458Z,71.25
2023-03-19T08:02:46.341Z,75.32
2023-03-19T08:05:12.758Z,84.85
2023-03-19T08:07:39.272Z,103.32
2023-03-19T08:10:06.276Z,129.90
2023-03-19T08:12:34.463Z,153.63
2023-03-19T08:15:00.858Z,154.98
2023-03-19T08:17:27.284Z,189.35
2023-03-19T08:19:53.686Z,188.88
2023-03-19T08:22:20.128Z,209.90
2023-03-19T08:24:46.489Z,207.93
2023-03-19T08:27:13.028Z,200.80
2023-03-19T08:29:39.390Z,253.13
2023-03-19T08:32:06.438Z,228.32
2023-03-19T08:34:33.237Z,215.18
2023-03-19T08:36:59.604Z,167.10
2023-03-19T08:39:26.179Z,185.32
2023-03-19T08:41:52.506Z,137.32
2023-03-19T08:44:18.890Z,126.90
2023-03-19T08:46:45.613Z,113.18
2023-03-19T08:49:12.029Z,132.05
2023-03-19T08:51:38.514Z,105.82
2023-03-19T08:54:05.306Z,97.38
2023-03-19T08:56:31.773Z,84.43
2023-03-19T08:58:58.312Z,78.28
2023-03-19T09:01:24.837Z,73.13
2023-03-19T09:03:51.213Z,56.78
2023-03-19T09:06:17.778Z,45.15
2023-03-19T09:08:44.867Z,44.10
2023-03-19T09:11:11.613Z,43.05
2023-03-19T09:13:38.346Z,42.83
2023-03-19T09:16:05.739Z,43.58
2023-03-19T09:18:38.388Z,44.30
2023-03-19T09:21:05.154Z,33.85
2023-03-19T09:23:31.536Z,32.08
2023-03-19T09:25:58.051Z,28.48
2023-03-19T09:28:24.751Z,29.52
2023-03-19T09:30:52.134Z,26.83
2023-03-19T09:33:20.254Z,29.63
2023-03-19T09:35:55.045Z,30.98
2023-03-19T09:38:27.365Z,25.63
2023-03-19T09:41:14.652Z,24.77
2023-03-19T09:43:56.751Z,25.15
2023-03-19T09:46:32.077Z,29.05
2023-03-19T09:49:07.101Z,30.42
2023-03-19T09:51:43.315Z,28.55
2023-03-19T09:54:42.996Z,28.00
2023-03-19T09:57:11.370Z,26.30
2023-03-19T09:59:39.504Z,26.67
2023-03-19T10:02:30.799Z,27.88
2023-03-19T10:05:14.227Z,30.42
2023-03-19T10:08:05.704Z,28.02
2023-03-19T10:11:07.514Z,19.30
2023-03-19T10:14:02.534Z,14.57
2023-03-19T10:19:03.270Z,16.17
2023-03-19T10:21:39.753Z,17.95
2023-03-19T10:24:21.709Z,17.30
2023-03-19T10:26:49.781Z,12.98
2023-03-19T10:29:22.336Z,10.85
2023-03-19T10:31:55.385Z,10.38
2023-03-19T10:34:21.884Z,11.45
2023-03-19T10:36:48.410Z,10.60
2023-03-19T10:39:18.987Z,10.80
2023-03-19T10:42:08.391Z,10.48
2023-03-19T10:44:38.813Z,10.30
2023-03-19T10:47:16.810Z,11.48
2023-03-19T10:49:43.185Z,10.73
2023-03-19T10:52:30.875Z,11.30
2023-03-19T10:55:04.588Z,11.05
2023-03-19T10:57:32.013Z,12.65
2023-03-19T11:00:05.946Z,11.98
2023-03-19T11:02:33.539Z,12.68
2023-03-19T11:05:12.836Z,12.32
2023-03-19T11:07:39.911Z,11.80
2023-03-19T11:10:15.681Z,10.77
2023-03-19T11:12:47.442Z,10.25
2023-03-19T11:15:27.589Z,7.60
2023-03-19T11:17:59.729Z,8.18
2023-03-19T11:20:35.458Z,7.95
2023-03-19T11:23:07.715Z,8.02
2023-03-19T11:25:41.520Z,7.88
2023-03-19T11:28:12.382Z,6.22
2023-03-19T11:31:02.024Z,6.18
2023-03-19T11:33:53.555Z,5.65
2023-03-19T11:36:27.345Z,6.40
2023-03-19T11:39:11.487Z,7.03
2023-03-19T11:41:59.969Z,6.05
2023-03-19T11:44:59.792Z,6.05
2023-03-19T11:47:30.533Z,6.03
2023-03-19T11:50:19.188Z,6.35
2023-03-19T11:53:13.266Z,6.85
2023-03-19T11:55:39.794Z,7.87
2023-03-19T11:58:28.840Z,8.00
2023-03-19T12:01:15.998Z,6.90
2023-03-19T12:04:10.076Z,7.63
2023-03-19T12:07:03.280Z,7.73
2023-03-19T12:09:51.998Z,8.30
2023-03-19T12:12:28.372Z,7.85
2023-03-19T12:15:19.792Z,7.35
2023-03-19T12:18:13.550Z,7.28
2023-03-19T12:21:17.375Z,8.65
2023-03-19T12:23:43.708Z,8.27
2023-03-19T12:26:20.983Z,9.00
2023-03-19T12:29:04.485Z,6.30
2023-03-19T12:31:57.738Z,8.18
2023-03-19T12:34:36.541Z,9.82
2023-03-19T12:37:11.981Z,9.05
2023-03-19T12:39:47.177Z,11.25
2023-03-19T12:42:18.737Z,11.38
2023-03-19T12:44:52.670Z,11.60
2023-03-19T12:47:42.048Z,15.27
2023-03-19T12:50:15.303Z,12.25
2023-03-19T12:52:44.333Z,13.77
2023-03-19T12:55:17.011Z,12.23
2023-03-19T12:58:03.888Z,11.88
2023-03-19T13:00:42.372Z,13.05
2023-03-19T13:03:25.648Z,10.20
2023-03-19T13:06:10.981Z,13.02
2023-03-19T13:08:45.035Z,14.27
2023-03-19T13:11:17.549Z,19.38
2023-03-19T13:14:11.457Z,20.80
2023-03-19T13:16:48.747Z,17.55
2023-03-19T13:19:40.329Z,16.52
2023-03-19T13:22:12.382Z,17.60
2023-03-19T13:24:41.590Z,17.45
2023-03-19T13:27:15.639Z,16.15
2023-03-19T13:29:58.433Z,16.30
2023-03-19T13:32:54.403Z,15.95
2023-03-19T13:35:36.494Z,15.35
2023-03-19T13:38:22.634Z,14.32
2023-03-19T13:40:52.043Z,14.23
2023-03-19T13:43:29.278Z,13.73
2023-03-19T13:46:16.021Z,13.90
2023-03-19T13:48:45.517Z,13.63
2023-03-19T13:51:19.083Z,12.95
2023-03-19T13:53:58.286Z,10.13
2023-03-19T13:56:30.288Z,8.63
2023-03-19T13:59:15.691Z,7.82
2023-03-19T14:01:47.235Z,7.53
2023-03-19T14:04:22.795Z,7.68
2023-03-19T14:06:53.526Z,7.18
2023-03-19T14:09:34.774Z,6.50
2023-03-19T14:12:20.517Z,7.45
2023-03-19T14:14:50.539Z,9.65
2023-03-19T14:17:22.542Z,7.30
2023-03-19T14:19:50.937Z,7.97
2023-03-19T14:22:39.958Z,8.95
2023-03-19T14:25:23.830Z,10.35
2023-03-19T14:27:54.061Z,10.00
2023-03-19T14:30:35.100Z,8.82
2023-03-19T14:33:06.922Z,13.55
2023-03-19T14:35:39.536Z,13.10
2023-03-19T14:38:25.204Z,14.82
2023-03-19T14:40:52.773Z,13.25
2023-03-19T14:43:31.019Z,14.85
2023-03-19T14:46:03.938Z,11.23
2023-03-19T14:48:52.032Z,13.93
2023-03-19T14:51:51.818Z,12.35
2023-03-19T14:54:30.559Z,11.27
2023-03-19T14:56:57.779Z,9.23
2023-03-19T14:59:24.266Z,9.73
2023-03-19T15:01:53.451Z,8.77
2023-03-19T15:04:25.426Z,7.90
2023-03-19T15:06:55.924Z,9.25
2023-03-19T15:09:27.281Z,9.73
2023-03-19T15:12:14.386Z,10.10
2023-03-19T15:14:56.312Z,11.88
2023-03-19T15:17:29.881Z,9.43
2023-03-19T15:19:59.910Z,9.65
2023-03-19T15:22:33.529Z,9.80
2023-03-19T15:25:08.814Z,10.80
2023-03-19T15:27:35.929Z,10.77
2023-03-19T15:30:14.375Z,14.20
2023-03-19T15:32:54.428Z,14.63
2023-03-19T15:35:34.367Z,11.23
2023-03-19T15:38:06.452Z,10.88
2023-03-19T15:40:36.808Z,14.65
2023-03-19T15:43:05.257Z,15.77
2023-03-19T15:45:33.968Z,15.40
2023-03-19T15:48:25.120Z,19.23
2023-03-19T15:50:57.533Z,17.25
2023-03-19T15:53:29.517Z,16.42
2023-03-19T15:55:56.311Z,16.70
2023-03-19T15:58:27.826Z,11.95
2023-03-19T16:00:55.570Z,11.77
2023-03-19T16:04:20.892Z,13.23
2023-03-19T16:06:49.409Z,9.40
2023-03-19T16:09:29.487Z,8.68
2023-03-19T16:11:56.936Z,8.40
2023-03-19T16:14:24.057Z,9.93
2023-03-19T16:16:51.351Z,10.10
2023-03-19T16:19:32.375Z,10.68
2023-03-19T16:21:59.964Z,11.27
2023-03-19T16:24:37.514Z,11.05
2023-03-19T16:27:07.892Z,11.07
2023-03-19T16:29:39.175Z,12.50
2023-03-19T16:32:11.770Z,16.08
2023-03-19T16:34:46.612Z,11.98
2023-03-19T16:37:25.354Z,17.05
2023-03-19T16:39:57.976Z,16.83
2023-03-19T16:42:33.757Z,13.82
2023-03-19T16:45:17.525Z,13.30
2023-03-19T16:47:45.811Z,12.03
2023-03-19T16:50:13.732Z,12.18
2023-03-19T16:52:41.409Z,15.27
2023-03-19T16:55:21.842Z,18.17
2023-03-19T16:58:18.940Z,12.25
2023-03-19T17:00:47.183Z,9.63
2023-03-19T17:03:18.538Z,14.80
2023-03-19T17:05:46.536Z,14.52
2023-03-19T17:08:13.798Z,15.55
2023-03-19T17:10:45.623Z,14.60
2023-03-19T17:13:29.697Z,9.95
2023-03-19T17:16:00.846Z,9.30
2023-03-19T17:18:30.805Z,15.20
2023-03-19T17:21:02.111Z,16.67
2023-03-19T17:23:37.684Z,15.05
2023-03-19T17:26:16.159Z,15.13
2023-03-19T17:28:45.849Z,13.63
2023-03-19T17:31:29.101Z,13.52
2023-03-19T17:34:02.670Z,13.43
2023-03-19T17:37:03.337Z,15.25
2023-03-19T17:39:33.188Z,13.35
2023-03-19T17:41:59.991Z,14.25
2023-03-19T17:44:27.869Z,15.68
2023-03-19T17:46:55.850Z,15.25
2023-03-19T17:49:32.561Z,16.25
2023-03-19T17:51:59.712Z,13.95
2023-03-19T17:54:27.134Z,19.08
2023-03-19T17:56:55.194Z,17.67
2023-03-19T17:59:22.315Z,20.38
2023-03-19T18:01:48.939Z,22.40
2023-03-19T18:04:20.047Z,23.23
2023-03-19T18:06:51.045Z,26.58
2023-03-19T18:09:25.846Z,25.67
2023-03-19T18:11:52.597Z,22.08
2023-03-19T18:14:19.035Z,23.52
2023-03-19T18:16:46.424Z,20.98
2023-03-19T18:19:40.451Z,20.80
2023-03-19T18:22:18.389Z,19.42
2023-03-19T18:24:45.306Z,22.52
2023-03-19T18:27:12.458Z,26.27
2023-03-19T18:29:41.241Z,28.23
2023-03-19T18:32:13.900Z,28.65
2023-03-19T18:34:40.508Z,30.63
2023-03-19T18:37:07.074Z,32.78
2023-03-19T18:39:38.010Z,35.45
2023-03-19T18:42:04.464Z,38.00
2023-03-19T18:44:30.934Z,36.72
2023-03-19T18:46:57.931Z,39.50
2023-03-19T18:49:27.475Z,44.60
2023-03-19T18:52:02.601Z,46.10
2023-03-19T18:54:31.023Z,52.85
2023-03-19T18:56:59.906Z,51.20
2023-03-19T18:59:30.332Z,49.90
2023-03-19T19:02:22.403Z,50.45
2023-03-19T19:04:49.193Z,49.70
2023-03-19T19:07:19.184Z,51.65
2023-03-19T19:09:51.059Z,53.33
2023-03-19T19:12:18.517Z,55.88
2023-03-19T19:14:45.670Z,60.95
2023-03-19T19:17:26.448Z,56.72
2023-03-19T19:19:53.100Z,56.85
2023-03-19T19:22:20.332Z,57.33
2023-03-19T19:24:47.008Z,58.05
2023-03-19T19:27:26.496Z,59.88
2023-03-19T19:29:53.184Z,56.40
2023-03-19T19:32:28.629Z,56.92
2023-03-19T19:34:55.326Z,54.35
2023-03-19T19:37:24.794Z,47.92
2023-03-19T19:39:53.877Z,44.22
2023-03-19T19:42:22.562Z,39.17
2023-03-19T19:44:55.640Z,40.58
2023-03-19T19:47:24.436Z,39.30
2023-03-19T19:49:51.008Z,40.72
2023-03-19T19:52:20.626Z,39.50
2023-03-19T19:54:48.175Z,38.97
2023-03-19T19:58:19.354Z,38.50
2023-03-19T20:01:00.143Z,38.33
2023-03-19T20:03:31.357Z,39.88
2023-03-19T20:06:19.319Z,38.95
2023-03-19T20:09:23.717Z,36.67
2023-03-19T20:11:50.736Z,36.35
2023-03-19T20:14:35.783Z,37.75
2023-03-19T20:17:07.531Z,37.70
2023-03-19T20:19:34.147Z,37.42
2023-03-19T20:22:00.844Z,38.42
2023-03-19T20:24:27.380Z,38.13
2023-03-19T20:29:39.950Z,36.55
2023-03-19T20:32:26.010Z,34.97
2023-03-19T20:34:52.650Z,36.03
2023-03-19T20:37:19.190Z,33.35
2023-03-19T20:39:45.997Z,34.60
2023-03-19T20:42:16.101Z,33.50
2023-03-19T20:44:46.056Z,32.13
2023-03-19T20:47:20.462Z,32.17
2023-03-19T20:49:58.050Z,31.92
2023-03-19T20:52:24.473Z,30.75
2023-03-19T20:54:59.535Z,31.05
2023-03-19T20:57:29.238Z,30.77
2023-03-19T20:59:55.776Z,30.27
2023-03-19T21:02:25.776Z,31.02
2023-03-19T21:04:53.154Z,30.33
2023-03-19T21:07:29.070Z,30.75
2023-03-19T21:09:57.587Z,31.10
2023-03-19T21:12:29.814Z,31.05
2023-03-19T21:14:57.886Z,32.25
2023-03-19T21:17:25.102Z,31.35
2023-03-19T21:19:51.455Z,30.20
2023-03-19T21:22:24.939Z,28.25
2023-03-19T21:24:57.004Z,27.70
2023-03-19T21:27:26.246Z,29.73
2023-03-19T21:29:53.726Z,28.58
2023-03-19T21:32:20.286Z,28.25
2023-03-19T21:34:48.848Z,28.92
2023-03-19T21:37:18.046Z,28.70
2023-03-19T21:39:45.510Z,28.10
2023-03-19T21:42:17.482Z,29.23
2023-03-19T21:44:47.860Z,27.65
2023-03-19T21:47:18.810Z,29.33
2023-03-19T21:49:45.165Z,29.35
2023-03-19T21:52:18.277Z,31.67
2023-03-19T21:54:45.068Z,31.20
2023-03-19T21:57:13.547Z,29.95
2023-03-19T21:59:41.307Z,29.00
2023-03-19T22:02:41.643Z,29.48
2023-03-19T22:05:26.452Z,28.58
2023-03-19T22:07:53.402Z,28.55
2023-03-19T22:10:21.969Z,31.58
2023-03-19T22:12:49.137Z,31.60
2023-03-19T22:15:25.271Z,31.30
2023-03-19T22:17:51.785Z,31.60
2023-03-19T22:20:21.095Z,30.25
2023-03-19T22:22:49.730Z,29.08
2023-03-19T22:25:17.209Z,29.80
2023-03-19T22:27:46.990Z,31.05
2023-03-19T22:30:29.782Z,31.42
2023-03-19T22:32:57.308Z,29.15
2023-03-19T22:35:24.058Z,28.02
2023-03-19T22:37:50.536Z,27.85
2023-03-19T22:40:18.237Z,29.23
2023-03-19T22:42:46.983Z,28.73
2023-03-19T22:45:26.174Z,30.25
2023-03-19T22:47:57.122Z,29.35
2023-03-19T22:50:26.437Z,29.05
2023-03-19T22:52:56.425Z,28.88
2023-03-19T22:55:23.791Z,29.20
2023-03-19T22:57:51.006Z,31.30
2023-03-19T23:00:23.780Z,30.20
2023-03-19T23:02:57.753Z,30.92
2023-03-19T23:05:27.692Z,33.35
2023-03-19T23:07:56.089Z,32.75
2023-03-19T23:10:25.624Z,32.10
2023-03-19T23:12:53.341Z,31.50
2023-03-19T23:15:20.868Z,30.23
2023-03-19T23:17:47.731Z,33.25
2023-03-19T23:20:17.790Z,32.05
2023-03-19T23:22:45.768Z,32.28
2023-03-19T23:25:17.083Z,32.72
2023-03-19T23:27:47.156Z,30.80
2023-03-19T23:30:28.248Z,32.28
2023-03-19T23:32:56.162Z,31.50
2023-03-19T23:35:25.682Z,31.52
2023-03-19T23:37:54.904Z,33.50
2023-03-19T23:40:22.864Z,32.70
2023-03-19T23:42:53.591Z,33.92
2023-03-19T23:45:31.849Z,33.85
2023-03-19T23:48:05.299Z,31.08
2023-03-19T23:50:33.040Z,29.42
2023-03-19T23:53:00.474Z,27.52
2023-03-19T23:55:27.055Z,26.20
2023-03-19T23:57:54.136Z,25.25
